Epsom, Indiana
Current Conditions -  °F | °C
As of 8:35 AM on Friday 24 Oct 2014 (Local Time) from KDCY Reporting Station
Overcast Overcast  
Wind Chill: 49°   Ceiling: 3400
Heat Index: 49°   Visibility: 7mi
Dew Point: 47°   Wind: 3mph
Humidity: 94%   Direction: 160°SSE
Pressure: 30.12"   Gusts: NA
Location:  38.7791°N, 87.1828°W
Report Text: KDCY 241335Z AUTO 16003KT 7SM OVC034 09/08 A3012 RMK AO2 T00930084
Loading
Personal Weather Stations






























Interactive Weather Map
Tropical Storm Tracking
New forecast layout! Learn more

10-Day Weather Forecast

Advertisements
Track Severe Weather on mobile